Walworth, NY (14568)

2:03 AM EDT on April 23, 2017 (GMT -0400)
Chicken Thistle Farm | | Change Station

Elev 528 ft 43.11 °N, 77.28 °W | Updated 9 minutes ago

Clear
Clear
41.7 °F
Feels Like 39 °F
N
4.0
Wind Variable Wind from WNW
Gusts 8.0 mph

Today
High -- | Low -- °F
--% Chance of Precip.
Yesterday
High -- | Low -- °F
Precip. -- in
Pressure 30.13 in
Visibility 10.0 miles
Clouds Scattered Clouds 20000 ft
Windchill 39 °F
Dew Point 37 °F
Humidity 84%
Rainfall 0.00 in
Snow Depth Not available.
6:13 AM 8:01 PM
Waning Crescent, 14% visible
METAR KROC 230554Z 26006KT 10SM SCT200 05/02 A3011 RMK AO2 SLP201 T00500017 10111 20044 51008
Pressure 30.13 in
Visibility 10.0 miles
Clouds Scattered Clouds 20000 ft
Windchill 39 °F
Dew Point 37 °F
Humidity 84%
Rainfall 0.00 in
Snow Depth Not available.
6:13 AM 8:01 PM
Waning Crescent, 14% visible
METAR KROC 230554Z 26006KT 10SM SCT200 05/02 A3011 RMK AO2 SLP201 T00500017 10111 20044 51008

Get Severe Weather Alerts

Thanks for signing up!

Be on the lookout for a verification email in your inbox.

You'll start receiving the daily forecast at 8 AM.

×

10-Day Weather Forecast

Almanac

Astronomy

Apr. 23, 2017 Rise Set
Actual Time
Civil Twilight
Nautical Twilight
Astronomical Twilight
Moon
Length of Visible Light
Length of Day
Tomorrow will be .
, % of the Moon is Illuminated

Today's Extremes

State Highs State Lows

Community

WunderPhotos

WunderBlog® & News

Nearby

Air Quality

  Air Quality AQ Index Pollutant
Not available.

Snow Depth

Station Depth Elevation

Earthquake Activity

City Distance Mag. Time & Date
Minimum magnitude displayed is 2.5.

Coastal Water Temperatures

Place Temperature

Stations

Nearby Weather Stations

Station Location Temp. Windchill Dew Point Humidity Wind Precip. Elev Updated Type
                   

Watches & Warnings

There are currently no watches in effect.